Time;durP1;ratioP1;P1;durP2;ratioP2;P2;SDS_P1;SDS_P2;PMS_P1;PMS_P2;Temp;Humidity;BMP_temperature;BMP_pressure;BME280_temperature;BME280_humidity;BME280_pressure;Samples;Min_cycle;Max_cycle;Signal;HPM_P1;HPM_P2
2022/06/17 00:09:22;;;;;;;;;;;27.90;39.30;;;;;;21249391;27;20394;-65
2022/06/17 00:19:24;;;;;;;;;;;27.90;39.20;;;;;;21248829;27;19976;-65
2022/06/17 00:29:28;;;;;;;;;;;27.90;39.10;;;;;;21248113;28;19975;-67
2022/06/17 00:39:31;;;;;;;;;;;27.80;39.20;;;;;;21230629;28;19928;-65
2022/06/17 00:49:35;;;;;;;;;;;27.70;40.10;;;;;;21246860;28;19930;-64
2022/06/17 00:59:37;;;;;;;;;;;27.40;41.80;;;;;;21247006;28;19924;-64
2022/06/17 01:09:57;;;;;;;;;;;27.10;42.70;;;;;;21252839;27;19927;-64
2022/06/17 01:20:00;;;;;;;;;;;27.00;42.60;;;;;;21262974;27;19982;-65
2022/06/17 01:30:07;;;;;;;;;;;26.70;44.60;;;;;;21262177;27;19961;-65
2022/06/17 01:40:16;;;;;;;;;;;26.50;45.80;;;;;;21260353;27;20072;-64
2022/06/17 01:50:26;;;;;;;;;;;26.40;45.00;;;;;;21259028;27;19928;-65
2022/06/17 02:00:34;;;;;;;;;;;26.40;44.70;;;;;;21260297;27;19966;-65
2022/06/17 02:10:40;;;;;;;;;;;26.60;44.80;;;;;;21259481;27;19924;-62
2022/06/17 02:20:42;;;;;;;;;;;26.50;44.40;;;;;;21258432;27;19923;-66
2022/06/17 02:30:46;;;;;;;;;;;26.50;44.50;;;;;;21260144;27;19928;-65
2022/06/17 02:40:52;;;;;;;;;;;26.40;44.30;;;;;;21237396;27;19984;-64
2022/06/17 02:50:56;;;;;;;;;;;26.30;44.50;;;;;;21255309;27;19970;-64
2022/06/17 03:01:03;;;;;;;;;;;26.20;44.70;;;;;;21254290;27;19967;-64
2022/06/17 03:11:12;;;;;;;;;;;26.20;44.90;;;;;;21253348;27;19923;-64
2022/06/17 03:21:20;;;;;;;;;;;26.20;45.10;;;;;;21252262;27;19982;-65
2022/06/17 03:31:37;;;;;;;;;;;26.10;45.20;;;;;;21250502;27;19984;-64
2022/06/17 03:41:58;;;;;;;;;;;26.10;45.10;;;;;;21251431;27;19935;-64
2022/06/17 03:52:02;;;;;;;;;;;26.10;44.90;;;;;;21251009;27;19923;-65
2022/06/17 04:02:07;;;;;;;;;;;26.00;45.10;;;;;;21249371;27;20385;-65
2022/06/17 04:12:12;;;;;;;;;;;26.00;45.30;;;;;;21248853;27;19972;-64
2022/06/17 04:22:18;;;;;;;;;;;25.80;45.70;;;;;;21248158;27;19969;-62
2022/06/17 04:32:28;;;;;;;;;;;25.80;45.80;;;;;;21247892;28;19946;-64
2022/06/17 04:42:43;;;;;;;;;;;25.70;46.30;;;;;;21250634;27;19924;-63
2022/06/17 04:52:50;;;;;;;;;;;25.60;47.10;;;;;;21264046;27;19923;-64
2022/06/17 05:02:53;;;;;;;;;;;25.50;47.00;;;;;;21262233;27;19923;-64
2022/06/17 05:12:57;;;;;;;;;;;25.40;46.90;;;;;;21262276;27;19923;-64
2022/06/17 05:23:02;;;;;;;;;;;25.50;47.10;;;;;;21262032;27;19927;-63
2022/06/17 05:33:05;;;;;;;;;;;25.50;47.00;;;;;;21261822;27;19923;-64
2022/06/17 05:43:09;;;;;;;;;;;25.60;47.00;;;;;;21260359;27;19923;-64
2022/06/17 05:53:19;;;;;;;;;;;25.70;46.70;;;;;;21258554;27;19934;-62
2022/06/17 06:03:40;;;;;;;;;;;25.70;46.50;;;;;;21258589;27;20023;-63
2022/06/17 06:14:01;;;;;;;;;;;25.90;46.60;;;;;;21241958;27;19923;-64
2022/06/17 06:24:23;;;;;;;;;;;25.90;46.80;;;;;;21256427;27;19923;-63
2022/06/17 06:34:44;;;;;;;;;;;26.00;46.80;;;;;;21258003;27;20384;-64
2022/06/17 06:45:04;;;;;;;;;;;25.90;46.90;;;;;;21256164;27;20063;-63
2022/06/17 06:55:26;;;;;;;;;;;26.00;46.40;;;;;;21255252;27;20217;-63
2022/06/17 07:05:32;;;;;;;;;;;26.70;45.20;;;;;;21253969;27;19931;-61
2022/06/17 07:15:45;;;;;;;;;;;27.10;44.30;;;;;;21235450;27;19931;-66
2022/06/17 07:25:50;;;;;;;;;;;27.80;43.40;;;;;;21251280;27;19927;-64
2022/06/17 07:39:53;;;;;;;;;;;28.40;41.40;;;;;;21252288;27;20375;-64
2022/06/17 07:46:53;;;;;;;;;;;29.00;40.90;;;;;;21252118;27;19930;-64
2022/06/17 07:57:16;;;;;;;;;;;29.80;39.40;;;;;;21248907;27;20018;-63
2022/06/17 08:07:37;;;;;;;;;;;30.40;37.70;;;;;;21234904;27;20014;-63
2022/06/17 08:17:59;;;;;;;;;;;30.60;37.20;;;;;;21235877;27;19924;-64
2022/06/17 08:28:21;;;;;;;;;;;31.10;36.20;;;;;;21248918;28;19923;-67
2022/06/17 08:38:44;;;;;;;;;;;31.20;35.40;;;;;;21247993;28;20046;-64
2022/06/17 08:49:21;;;;;;;;;;;31.70;35.10;;;;;;21247310;28;19924;-63
2022/06/17 08:59:42;;;;;;;;;;;;;;;;;;21245655;28;19930;-66
2022/06/17 09:09:56;;;;;;;;;;;32.80;33.50;;;;;;21242044;28;19977;-65
2022/06/17 09:20:06;;;;;;;;;;;;;;;;;;21244888;28;19969;-64
2022/06/17 09:30:17;;;;;;;;;;;33.40;32.70;;;;;;21233880;27;19923;-67
2022/06/17 09:40:35;;;;;;;;;;;33.60;30.10;;;;;;21260415;27;19923;-66
2022/06/17 09:51:04;;;;;;;;;;;34.30;29.20;;;;;;21260702;27;20439;-73
2022/06/17 10:01:25;;;;;;;;;;;;;;;;;;21259964;27;20022;-65
2022/06/17 10:12:01;;;;;;;;;;;35.00;28.70;;;;;;21256132;27;20014;-66
2022/06/17 10:22:25;;;;;;;;;;;34.80;28.80;;;;;;21257354;27;19923;-68
2022/06/17 10:32:47;;;;;;;;;;;34.80;27.90;;;;;;21258161;27;20440;-65
2022/06/17 10:43:14;;;;;;;;;;;34.60;28.60;;;;;;21256493;27;19924;-64
2022/06/17 10:53:38;;;;;;;;;;;35.10;28.30;;;;;;21262949;27;19962;-65
2022/06/17 11:04:22;;;;;;;;;;;34.80;28.00;;;;;;21264293;27;20014;-65
2022/06/17 11:14:45;;;;;;;;;;;35.10;27.50;;;;;;20826139;28;19925;-65
2022/06/17 11:25:19;;;;;;;;;;;35.20;27.50;;;;;;20824472;28;19926;-66
2022/06/17 11:35:40;;;;;;;;;;;35.70;25.60;;;;;;20825128;28;19929;-65
2022/06/17 11:46:08;;;;;;;;;;;36.10;24.90;;;;;;20969445;27;20379;-63
2022/06/17 11:56:34;;;;;;;;;;;36.40;24.10;;;;;;21248544;27;19970;-65
2022/06/17 12:06:47;;;;;;;;;;;36.60;23.70;;;;;;21248567;27;19988;-63
2022/06/17 12:17:00;;;;;;;;;;;36.60;23.60;;;;;;21250244;27;20414;-60
2022/06/17 12:27:30;;;;;;;;;;;37.10;22.50;;;;;;21250505;28;20457;-64
2022/06/17 12:38:09;;;;;;;;;;;37.30;21.50;;;;;;21248134;28;20415;-65
2022/06/17 12:48:30;;;;;;;;;;;37.40;21.10;;;;;;21247385;28;19928;-67
2022/06/17 12:59:06;;;;;;;;;;;37.30;21.50;;;;;;21246933;28;19968;-65
2022/06/17 13:09:46;;;;;;;;;;;37.40;21.70;;;;;;21260112;27;19924;-66
2022/06/17 13:20:10;;;;;;;;;;;37.40;21.50;;;;;;21261677;27;19975;-65
2022/06/17 13:30:19;;;;;;;;;;;38.00;20.80;;;;;;21262190;27;19924;-66
2022/06/17 13:40:40;;;;;;;;;;;38.20;20.40;;;;;;21261460;27;19934;-67
2022/06/17 13:50:44;;;;;;;;;;;38.10;20.10;;;;;;21245516;27;20267;-67
2022/06/17 14:00:49;;;;;;;;;;;38.40;19.50;;;;;;21258130;27;19927;-67
2022/06/17 14:10:56;;;;;;;;;;;38.60;18.90;;;;;;21259565;27;20546;-68
2022/06/17 14:21:00;;;;;;;;;;;38.50;19.60;;;;;;21256816;27;19923;-65
2022/06/17 14:31:13;;;;;;;;;;;38.70;19.10;;;;;;21256256;27;19972;-65
2022/06/17 14:51:42;;;;;;;;;;;39.00;17.90;;;;;;21255107;27;19950;-67
2022/06/17 15:01:45;;;;;;;;;;;38.90;18.30;;;;;;21252691;27;20399;-66
2022/06/17 15:11:52;;;;;;;;;;;39.10;17.30;;;;;;21252468;27;20021;-66
2022/06/17 15:21:58;;;;;;;;;;;39.20;16.60;;;;;;21233295;27;20390;-64
2022/06/17 15:32:20;;;;;;;;;;;39.20;16.70;;;;;;21251660;27;19923;-63
2022/06/17 15:42:41;;;;;;;;;;;39.10;16.40;;;;;;21236653;27;19924;-69
2022/06/17 15:53:09;;;;;;;;;;;39.10;16.80;;;;;;21251530;27;19923;-62
2022/06/17 16:03:31;;;;;;;;;;;39.00;15.80;;;;;;21249345;27;19928;-59
2022/06/17 16:13:49;;;;;;;;;;;39.10;15.80;;;;;;21252172;27;19923;-67
2022/06/17 16:24:07;;;;;;;;;;;38.80;16.70;;;;;;21258766;27;20297;-61
2022/06/17 16:34:28;;;;;;;;;;;39.00;16.10;;;;;;21254594;28;19930;-60
2022/06/17 16:44:49;;;;;;;;;;;38.90;16.20;;;;;;21264588;27;19924;-65
2022/06/17 16:55:18;;;;;;;;;;;38.80;16.40;;;;;;21265593;27;19933;-68
2022/06/17 17:05:39;;;;;;;;;;;38.60;16.10;;;;;;21263079;27;19923;-73
2022/06/17 17:15:41;;;;;;;;;;;38.60;16.20;;;;;;21257461;27;19931;-63
2022/06/17 17:26:02;;;;;;;;;;;38.30;16.30;;;;;;21255882;27;19923;-67
2022/06/17 17:36:16;;;;;;;;;;;38.20;17.00;;;;;;21262466;27;19924;-65
2022/06/17 17:46:38;;;;;;;;;;;37.80;17.00;;;;;;21259772;27;20323;-65
2022/06/17 17:56:59;;;;;;;;;;;37.30;16.70;;;;;;21258024;27;19931;-63
2022/06/17 18:07:20;;;;;;;;;;;36.30;18.70;;;;;;21259642;27;19938;-63
2022/06/17 18:17:42;;;;;;;;;;;35.60;20.00;;;;;;21256861;27;19931;-62
2022/06/17 18:28:03;;;;;;;;;;;35.20;20.40;;;;;;21257810;27;19927;-59
2022/06/17 18:38:24;;;;;;;;;;;35.20;20.20;;;;;;21262017;27;19946;-63
2022/06/17 18:48:46;;;;;;;;;;;35.30;20.60;;;;;;21257217;27;19924;-66
2022/06/17 18:59:12;;;;;;;;;;;;;;;;;;21255173;27;20010;-71
2022/06/17 19:20:19;;;;;;;;;;;35.00;20.60;;;;;;21252258;27;19924;-70
2022/06/17 19:30:40;;;;;;;;;;;34.90;20.10;;;;;;21251817;27;19969;-70
2022/06/17 19:51:42;;;;;;;;;;;34.70;20.90;;;;;;21254978;27;19924;-73
2022/06/17 20:01:58;;;;;;;;;;;34.60;21.00;;;;;;21260807;27;20387;-71
2022/06/17 20:12:17;;;;;;;;;;;34.40;21.30;;;;;;21254398;27;19976;-70
2022/06/17 20:22:45;;;;;;;;;;;34.30;21.50;;;;;;21250380;27;19927;-67
2022/06/17 20:33:07;;;;;;;;;;;34.20;21.80;;;;;;21249776;28;20351;-66
2022/06/17 20:43:28;;;;;;;;;;;34.10;22.00;;;;;;21248776;28;20485;-70
2022/06/17 20:53:44;;;;;;;;;;;33.90;22.30;;;;;;21249910;28;19931;-71
2022/06/17 21:03:55;;;;;;;;;;;33.80;22.50;;;;;;21248438;28;19923;-67
2022/06/17 21:14:18;;;;;;;;;;;33.70;22.60;;;;;;21252239;28;19923;-66
2022/06/17 21:24:41;;;;;;;;;;;33.70;22.80;;;;;;21254615;27;19924;-66
2022/06/17 21:35:02;;;;;;;;;;;33.60;22.90;;;;;;21266485;27;20386;-66
2022/06/17 21:45:25;;;;;;;;;;;33.60;23.00;;;;;;21265047;27;19923;-68
2022/06/17 21:55:46;;;;;;;;;;;33.40;23.30;;;;;;21265831;27;20382;-66
2022/06/17 22:06:06;;;;;;;;;;;33.20;23.10;;;;;;21261509;27;19924;-68
2022/06/17 22:16:25;;;;;;;;;;;33.30;23.10;;;;;;21267421;27;19923;-68
2022/06/17 22:26:46;;;;;;;;;;;33.20;23.10;;;;;;21270835;27;20006;-66
2022/06/17 22:37:12;;;;;;;;;;;33.10;23.70;;;;;;21264012;27;19978;-65
2022/06/17 22:47:33;;;;;;;;;;;33.00;23.70;;;;;;21261270;27;19930;-66
2022/06/17 22:57:56;;;;;;;;;;;32.90;24.00;;;;;;21265843;27;20308;-67
2022/06/17 23:08:20;;;;;;;;;;;32.60;24.30;;;;;;21265564;27;19923;-72
2022/06/17 23:29:22;;;;;;;;;;;32.10;25.30;;;;;;21259898;27;20002;-69
2022/06/17 23:39:45;;;;;;;;;;;31.90;25.60;;;;;;21258693;27;20202;-70
2022/06/17 23:50:06;;;;;;;;;;;31.70;25.80;;;;;;21253246;27;19976;-72
